Flight Track Log - Related Links

Times and Time Zones

All times are in EDT time to prevent confusion due to time zone crossing. See the N2315W flight status page for this flight to view local times or setup timezone preferences in your user account.

Time Position Orientation Groundspeed Altitude Reporting Facility
EDT Latitude Longitude Course Direction KTS MPH feet Rate Location/Type
Tue 06:40:42 PM 33.9000 -84.3000 90° East 92 106 1,800  Level Atlanta TRACON
Tue 06:41:42 PM 33.9000 -84.2667 90° East 92 106 2,500 750 Climbing Atlanta TRACON
Tue 06:42:42 PM 33.9000 -84.2333 90° East 98 113 3,300 667 Climbing Atlanta TRACON
Tue 06:43:48 PM 33.9000 -84.2000 90° East 93 107 3,900 571 Climbing Atlanta TRACON
Tue 06:44:48 PM 33.9000 -84.1667 90° East 93 107 4,500 550 Climbing Atlanta TRACON
Tue 06:45:48 PM 33.9000 -84.1333 90° East 100 115 5,000 238 Climbing Atlanta TRACON
Tue 06:46:54 PM 33.9000 -84.1000 90° East 133 153 5,000  Level Atlanta TRACON
Tue 06:47:54 PM 33.8833 -84.0500 112° Southeast 140 161 5,000  Level Atlanta TRACON
Tue 06:48:48 PM 33.8833 -84.0167 90° East 142 163 5,000  Level Atlanta TRACON
Tue 06:49:48 PM 33.8667 -83.9667 112° Southeast 145 167 5,000 50 Level Atlanta TRACON
Tue 06:50:48 PM 33.8500 -83.9167 112° Southeast 138 159 5,100 300 Climbing Atlanta TRACON
Tue 06:51:48 PM 33.8500 -83.8833 90° East 120 138 5,600 450 Climbing Atlanta TRACON
Tue 06:52:48 PM 33.8167 -83.8500 140° Southeast 118 136 6,000 450 Climbing Atlanta TRACON
Tue 06:53:48 PM 33.8000 -83.8333 140° Southeast 114 131 6,500 450 Climbing Atlanta TRACON
Tue 06:54:48 PM 33.7833 -83.8000 121° Southeast 114 131 6,900 250 Climbing Atlanta TRACON
Tue 06:55:48 PM 33.7667 -83.7667 121° Southeast 131 151 7,000 50 Climbing Atlanta TRACON
Tue 06:56:48 PM 33.7333 -83.7333 140° Southeast 147 169 7,000  Level Atlanta TRACON
Tue 06:57:42 PM 33.7167 -83.6833 112° Southeast 152 175 7,000  Level Atlanta TRACON
Tue 06:58:42 PM 33.6833 -83.6500 140° Southeast 155 178 7,000  Level Atlanta TRACON
Tue 06:59:48 PM 33.6667 -83.6167 121° Southeast 146 168 7,000  Level Atlanta TRACON
Tue 07:00:42 PM 33.6333 -83.5667 129° Southeast 149 171 7,000  Level Atlanta TRACON
Tue 07:01:42 PM 33.6167 -83.5333 121° Southeast 148 170 7,000  Level Atlanta TRACON
Tue 07:02:42 PM 33.5833 -83.5000 140° Southeast 150 173 7,000  Level Atlanta TRACON
Tue 07:03:48 PM 33.5667 -83.4500 112° Southeast 149 171 7,000  Level Atlanta TRACON
Tue 07:04:48 PM 33.5333 -83.4167 140° Southeast 150 173 7,000  Level Atlanta TRACON
Tue 07:05:48 PM 33.5167 -83.3667 112° Southeast 146 168 7,000  Level Atlanta TRACON
Tue 07:06:48 PM 33.4833 -83.3333 140° Southeast 145 167 7,000  Level Atlanta TRACON
Tue 07:07:54 PM 33.4667 -83.2833 112° Southeast 147 169 7,000  Level Atlanta TRACON
Tue 07:08:54 PM 33.4333 -83.2500 140° Southeast 147 169 7,000  Level Atlanta TRACON
Tue 07:09:54 PM 33.4167 -83.2167 121° Southeast 149 171 7,000  Level Atlanta TRACON
Tue 07:11:00 PM 33.3996 -83.1681 113° Southeast  Level FlightAware
Tue 07:18:00 PM 33.2693 -82.8642 129° Southeast  Level FlightAware
Tue 07:18:18 PM 33.2086 -82.8819 129° Southeast 150 173 7,000  Level Atlanta Center
Tue 07:19:00 PM 33.2439 -82.8273 129° Southeast  Level FlightAware
Tue 07:19:18 PM 33.1853 -82.8450 127° Southeast 150 173 7,000  Level Atlanta Center
Tue 07:20:00 PM 33.2185 -82.7903 129° Southeast  Level FlightAware
Tue 07:20:18 PM 33.1578 -82.8056 130° Southeast 150 173 7,000  Level Atlanta Center
Tue 07:21:00 PM 33.1931 -82.7534 129° Southeast  Level FlightAware
Tue 07:21:18 PM 33.1344 -82.7661 125° Southeast 150 173 7,000  Level Atlanta Center
Tue 07:22:00 PM 33.1677 -82.7165 129° Southeast  Level FlightAware
Tue 07:22:18 PM 33.1089 -82.7269 128° Southeast 150 173 7,000  Level Atlanta Center
Tue 07:23:18 PM 33.0856 -82.6875 125° Southeast 150 173 7,000  Level Atlanta Center
Tue 07:24:18 PM 33.0600 -82.6483 128° Southeast 150 173 7,000  Level Atlanta Center
Tue 07:25:18 PM 33.0386 -82.6139 127° Southeast 150 173 7,000  Level Atlanta Center
Tue 07:26:18 PM 33.0133 -82.5747 128° Southeast 150 173 7,000  Level Atlanta Center
Tue 07:27:18 PM 32.9897 -82.5356 126° Southeast 150 173 7,000  Level Atlanta Center
Tue 07:28:18 PM 32.9642 -82.4989 130° Southeast 150 173 7,000  Level Atlanta Center
Tue 07:29:18 PM 32.9408 -82.4597 125° Southeast 150 173 7,000  Level Atlanta Center
Tue 07:30:18 PM 32.9175 -82.4231 127° Southeast 144 166 7,000  Level Atlanta Center
Tue 07:31:58 PM 32.8772 -82.3558 125° Southeast 144 166 7,000  Level Jacksonville Center
Tue 07:32:58 PM 32.8500 -82.3189 131° Southeast 144 166 7,000  Level Jacksonville Center
Tue 07:33:58 PM 32.8269 -82.2819 127° Southeast 144 166 7,000  Level Jacksonville Center
Tue 07:34:58 PM 32.8036 -82.2425 125° Southeast 144 166 7,000  Level Jacksonville Center
Tue 07:35:57 PM 32.7806 -82.2058 127° Southeast 144 166 7,000  Level Jacksonville Center
Tue 07:36:57 PM 32.7553 -82.1689 129° Southeast 144 166 7,000  Level Jacksonville Center
Tue 07:37:57 PM 32.7322 -82.1319 127° Southeast 144 166 7,000  Level Jacksonville Center
Tue 07:38:58 PM 32.7069 -82.0953 129° Southeast 139 160 7,000  Level Jacksonville Center
Tue 07:39:58 PM 32.6836 -82.0558 125° Southeast 139 160 7,000  Level Jacksonville Center
Tue 07:40:58 PM 32.6603 -82.0192 127° Southeast 139 160 7,000  Level Jacksonville Center
Tue 07:41:58 PM 32.6331 -81.9847 133° Southeast 139 160 7,000  Level Jacksonville Center
Tue 07:42:57 PM 32.6078 -81.9456 127° Southeast 139 160 7,000  Level Jacksonville Center
Tue 07:43:57 PM 32.5886 -81.9136 125° Southeast 133 153 7,000  Level Jacksonville Center
Tue 07:44:57 PM 32.5611 -81.8697 127° Southeast 139 160 7,000  Level Jacksonville Center
Tue 07:45:58 PM 32.5358 -81.8356 131° Southeast 139 160 7,000  Level Jacksonville Center
Tue 07:46:57 PM 32.5125 -81.7986 127° Southeast 134 154 7,000  Level Jacksonville Center
Tue 07:47:58 PM 32.4914 -81.7644 126° Southeast 134 154 7,000  Level Jacksonville Center
Tue 07:48:57 PM 32.4681 -81.7278 127° Southeast 134 154 7,000  Level Jacksonville Center
Tue 07:49:57 PM 32.4428 -81.6889 128° Southeast 134 154 7,000  Level Jacksonville Center
Tue 07:50:58 PM 32.4172 -81.6497 128° Southeast 134 154 7,000  Level Jacksonville Center
Tue 07:51:58 PM 32.3919 -81.6156 131° Southeast 139 160 7,000 -170 Level Jacksonville Center
Tue 07:53:00 PM 32.3688 -81.5767 125° Southeast  Level FlightAware
Tue 08:00:00 PM 32.2116 -81.3136 125° Southeast  Level FlightAware
Tue 08:01:00 PM 32.1891 -81.2761 125° Southeast  Level FlightAware
Tue 08:02:00 PM 32.1666 -81.2386 125° Southeast  Level FlightAware
Tue 08:03:00 PM 32.1440 -81.2011 125° Southeast  Level FlightAware
Tue 08:04:00 PM 32.1124 -81.1877 190° South  Level FlightAware
Tue 08:05:00 PM 32.0741 -81.1956 190° South  Level FlightAware
Tue 08:06:00 PM 32.0358 -81.2035 190° South  Level FlightAware
Tue 08:07:00 PM 31.9974 -81.2114 190° South  Level FlightAware
Tue 08:08:00 PM 31.9591 -81.2194 190° South  Level FlightAware
Tue 08:08:34 PM 31.8264 -81.2689 189° South 136 157 4,000  Level Jacksonville Center
Tue 08:09:00 PM 31.9196 -81.2270 189° South  Level FlightAware
Tue 08:09:34 PM 31.7972 -81.2744 189° South 136 157 4,000  Level Jacksonville Center
Tue 08:10:00 PM 31.8801 -81.2345 189° South  Level FlightAware
Tue 08:10:34 PM 31.7575 -81.2825 190° South 136 157 4,000  Level Jacksonville Center
Tue 08:11:00 PM 31.8406 -81.2421 189° South  Level FlightAware
Tue 08:11:34 PM 31.7200 -81.2881 187° South 142 163 4,000  Level Jacksonville Center
Tue 08:12:00 PM 31.8011 -81.2497 189° South  Level FlightAware
Tue 08:12:34 PM 31.6825 -81.2933 187° South 142 163 4,000  Level Jacksonville Center
Tue 08:13:34 PM 31.6492 -81.3014 192° South 142 163 4,000  Level Jacksonville Center
Tue 08:14:33 PM 31.6139 -81.3069 188° South 142 163 4,000  Level Jacksonville Center
Tue 08:15:33 PM 31.5742 -81.3147 189° South 142 163 4,000  Level Jacksonville Center
Tue 08:16:33 PM 31.5389 -81.3228 191° South 142 163 4,000  Level Jacksonville Center
Tue 08:17:34 PM 31.5014 -81.3283 187° South 142 163 4,000  Level Jacksonville Center
Tue 08:18:33 PM 31.4681 -81.3336 188° South 142 163 4,000 -50 Level Jacksonville Center
Tue 08:19:33 PM 31.4325 -81.3417 191° South 135 155 3,900 -400 Descending Jacksonville Center
Tue 08:20:33 PM 31.3889 -81.3497 189° South 147 169 3,200 -650 Descending Jacksonville Center
Tue 08:21:33 PM 31.3514 -81.3575 190° South 147 169 2,600 -600 Descending Jacksonville Center

Login

Don't have an account? Register now (free) for customized features, flight alerts, and more!